sensor_id;sensor_type;location;lat;lon;timestamp;temperature;humidity
21355;DHT22;10835;50.148;19.760;2023-10-09T00:00:35;18.50;49.20
21355;DHT22;10835;50.148;19.760;2023-10-09T00:03:18;18.30;49.50
21355;DHT22;10835;50.148;19.760;2023-10-09T00:05:50;18.80;49.50
21355;DHT22;10835;50.148;19.760;2023-10-09T00:08:21;18.60;49.40
21355;DHT22;10835;50.148;19.760;2023-10-09T00:10:59;18.30;49.00
21355;DHT22;10835;50.148;19.760;2023-10-09T00:13:41;18.00;49.50
21355;DHT22;10835;50.148;19.760;2023-10-09T00:16:19;17.90;49.80
21355;DHT22;10835;50.148;19.760;2023-10-09T00:19:01;18.00;49.70
21355;DHT22;10835;50.148;19.760;2023-10-09T00:21:41;17.70;50.40
21355;DHT22;10835;50.148;19.760;2023-10-09T00:24:09;17.50;50.00
21355;DHT22;10835;50.148;19.760;2023-10-09T00:26:43;17.60;50.30
21355;DHT22;10835;50.148;19.760;2023-10-09T00:29:13;17.80;50.50
21355;DHT22;10835;50.148;19.760;2023-10-09T00:31:51;18.20;49.90
21355;DHT22;10835;50.148;19.760;2023-10-09T00:34:22;18.20;49.70
21355;DHT22;10835;50.148;19.760;2023-10-09T00:36:53;18.40;49.60
21355;DHT22;10835;50.148;19.760;2023-10-09T00:39:22;18.50;49.20
21355;DHT22;10835;50.148;19.760;2023-10-09T00:42:11;18.50;48.90
21355;DHT22;10835;50.148;19.760;2023-10-09T00:44:43;18.80;49.20
21355;DHT22;10835;50.148;19.760;2023-10-09T00:47:17;18.80;48.50
21355;DHT22;10835;50.148;19.760;2023-10-09T00:49:52;18.30;48.90
21355;DHT22;10835;50.148;19.760;2023-10-09T00:52:29;18.40;49.40
21355;DHT22;10835;50.148;19.760;2023-10-09T00:55:07;18.30;49.50
21355;DHT22;10835;50.148;19.760;2023-10-09T00:57:44;17.80;49.50
21355;DHT22;10835;50.148;19.760;2023-10-09T01:00:24;17.50;50.30
21355;DHT22;10835;50.148;19.760;2023-10-09T01:03:02;17.90;50.70
21355;DHT22;10835;50.148;19.760;2023-10-09T01:05:49;18.20;50.10
21355;DHT22;10835;50.148;19.760;2023-10-09T01:08:25;18.40;49.70
21355;DHT22;10835;50.148;19.760;2023-10-09T01:11:00;18.80;49.00
21355;DHT22;10835;50.148;19.760;2023-10-09T01:13:37;18.90;48.40
21355;DHT22;10835;50.148;19.760;2023-10-09T01:16:21;18.90;48.40
21355;DHT22;10835;50.148;19.760;2023-10-09T01:18:53;18.70;48.30
21355;DHT22;10835;50.148;19.760;2023-10-09T01:21:24;18.80;48.50
21355;DHT22;10835;50.148;19.760;2023-10-09T01:23:55;19.10;48.30
21355;DHT22;10835;50.148;19.760;2023-10-09T01:26:31;19.40;48.20
21355;DHT22;10835;50.148;19.760;2023-10-09T01:29:07;19.40;47.10
21355;DHT22;10835;50.148;19.760;2023-10-09T01:31:38;19.20;47.10
21355;DHT22;10835;50.148;19.760;2023-10-09T01:34:11;19.40;46.90
21355;DHT22;10835;50.148;19.760;2023-10-09T01:36:42;19.50;47.20
21355;DHT22;10835;50.148;19.760;2023-10-09T01:39:12;19.10;47.10
21355;DHT22;10835;50.148;19.760;2023-10-09T01:41:51;19.20;46.60
21355;DHT22;10835;50.148;19.760;2023-10-09T01:44:27;18.60;47.50
21355;DHT22;10835;50.148;19.760;2023-10-09T01:46:57;18.60;47.80
21355;DHT22;10835;50.148;19.760;2023-10-09T01:49:26;18.80;48.10
21355;DHT22;10835;50.148;19.760;2023-10-09T01:52:00;19.10;47.70
21355;DHT22;10835;50.148;19.760;2023-10-09T01:54:36;19.30;47.50
21355;DHT22;10835;50.148;19.760;2023-10-09T01:57:08;19.30;47.40
21355;DHT22;10835;50.148;19.760;2023-10-09T01:59:41;18.20;47.60
21355;DHT22;10835;50.148;19.760;2023-10-09T02:02:13;18.10;49.70
21355;DHT22;10835;50.148;19.760;2023-10-09T02:04:55;18.60;49.00
21355;DHT22;10835;50.148;19.760;2023-10-09T02:07:34;18.60;48.80
21355;DHT22;10835;50.148;19.760;2023-10-09T02:10:11;18.60;49.10
21355;DHT22;10835;50.148;19.760;2023-10-09T02:12:49;18.70;49.30
21355;DHT22;10835;50.148;19.760;2023-10-09T02:15:21;18.70;49.00
21355;DHT22;10835;50.148;19.760;2023-10-09T02:18:14;18.90;49.40
21355;DHT22;10835;50.148;19.760;2023-10-09T02:20:47;19.10;49.20
21355;DHT22;10835;50.148;19.760;2023-10-09T02:23:29;19.30;49.00
21355;DHT22;10835;50.148;19.760;2023-10-09T02:26:08;19.60;48.50
21355;DHT22;10835;50.148;19.760;2023-10-09T02:28:44;19.70;48.50
21355;DHT22;10835;50.148;19.760;2023-10-09T02:31:19;19.70;48.60
21355;DHT22;10835;50.148;19.760;2023-10-09T02:33:50;19.90;47.70
21355;DHT22;10835;50.148;19.760;2023-10-09T02:36:21;19.90;47.10
21355;DHT22;10835;50.148;19.760;2023-10-09T02:38:49;20.00;47.00
21355;DHT22;10835;50.148;19.760;2023-10-09T02:41:21;19.90;46.80
21355;DHT22;10835;50.148;19.760;2023-10-09T02:43:55;20.20;46.50
21355;DHT22;10835;50.148;19.760;2023-10-09T02:46:25;20.40;46.10
21355;DHT22;10835;50.148;19.760;2023-10-09T02:48:57;20.50;46.00
21355;DHT22;10835;50.148;19.760;2023-10-09T02:51:26;20.50;45.80
21355;DHT22;10835;50.148;19.760;2023-10-09T02:54:03;20.60;45.60
21355;DHT22;10835;50.148;19.760;2023-10-09T02:56:47;20.50;45.70
21355;DHT22;10835;50.148;19.760;2023-10-09T02:59:24;20.40;46.10
21355;DHT22;10835;50.148;19.760;2023-10-09T03:01:52;20.50;46.40
21355;DHT22;10835;50.148;19.760;2023-10-09T03:04:21;20.50;45.80
21355;DHT22;10835;50.148;19.760;2023-10-09T03:06:51;20.60;45.50
21355;DHT22;10835;50.148;19.760;2023-10-09T03:09:25;20.70;45.40
21355;DHT22;10835;50.148;19.760;2023-10-09T03:11:58;20.70;45.50
21355;DHT22;10835;50.148;19.760;2023-10-09T03:14:31;20.60;45.40
21355;DHT22;10835;50.148;19.760;2023-10-09T03:17:02;19.80;46.40
21355;DHT22;10835;50.148;19.760;2023-10-09T03:19:32;19.90;47.10
21355;DHT22;10835;50.148;19.760;2023-10-09T03:22:05;19.90;47.40
21355;DHT22;10835;50.148;19.760;2023-10-09T03:24:38;20.10;47.10
21355;DHT22;10835;50.148;19.760;2023-10-09T03:27:10;20.00;46.90
21355;DHT22;10835;50.148;19.760;2023-10-09T03:29:39;20.00;47.30
21355;DHT22;10835;50.148;19.760;2023-10-09T03:32:12;20.00;47.40
21355;DHT22;10835;50.148;19.760;2023-10-09T03:34:40;20.20;47.90
21355;DHT22;10835;50.148;19.760;2023-10-09T03:37:11;20.20;47.30
21355;DHT22;10835;50.148;19.760;2023-10-09T03:39:49;20.30;47.40
21355;DHT22;10835;50.148;19.760;2023-10-09T03:42:23;20.30;47.50
21355;DHT22;10835;50.148;19.760;2023-10-09T03:44:52;20.30;47.70
21355;DHT22;10835;50.148;19.760;2023-10-09T03:47:21;20.50;48.00
21355;DHT22;10835;50.148;19.760;2023-10-09T03:49:52;20.60;47.60
21355;DHT22;10835;50.148;19.760;2023-10-09T03:52:21;20.70;47.50
21355;DHT22;10835;50.148;19.760;2023-10-09T03:54:53;20.70;47.60
21355;DHT22;10835;50.148;19.760;2023-10-09T03:57:24;20.80;47.60
21355;DHT22;10835;50.148;19.760;2023-10-09T03:59:53;20.80;47.50
21355;DHT22;10835;50.148;19.760;2023-10-09T04:02:22;20.90;47.30
21355;DHT22;10835;50.148;19.760;2023-10-09T04:04:51;21.00;47.00
21355;DHT22;10835;50.148;19.760;2023-10-09T04:07:20;21.10;46.80
21355;DHT22;10835;50.148;19.760;2023-10-09T04:09:49;21.00;46.80
21355;DHT22;10835;50.148;19.760;2023-10-09T04:12:31;21.10;46.70
21355;DHT22;10835;50.148;19.760;2023-10-09T04:15:01;21.10;46.70
21355;DHT22;10835;50.148;19.760;2023-10-09T04:17:32;21.10;46.70
21355;DHT22;10835;50.148;19.760;2023-10-09T04:20:02;21.10;46.70
21355;DHT22;10835;50.148;19.760;2023-10-09T04:22:49;21.20;46.40
21355;DHT22;10835;50.148;19.760;2023-10-09T04:25:27;21.20;46.40
21355;DHT22;10835;50.148;19.760;2023-10-09T04:27:59;21.20;46.30
21355;DHT22;10835;50.148;19.760;2023-10-09T04:30:37;21.30;46.20
21355;DHT22;10835;50.148;19.760;2023-10-09T04:33:11;21.20;46.30
21355;DHT22;10835;50.148;19.760;2023-10-09T04:36:00;21.10;46.60
21355;DHT22;10835;50.148;19.760;2023-10-09T04:38:52;21.20;46.60
21355;DHT22;10835;50.148;19.760;2023-10-09T04:41:43;21.30;46.20
21355;DHT22;10835;50.148;19.760;2023-10-09T04:44:30;21.30;46.10
21355;DHT22;10835;50.148;19.760;2023-10-09T04:47:03;21.40;46.40
21355;DHT22;10835;50.148;19.760;2023-10-09T04:49:46;21.20;46.30
21355;DHT22;10835;50.148;19.760;2023-10-09T04:52:29;21.20;46.70
21355;DHT22;10835;50.148;19.760;2023-10-09T04:55:15;21.20;46.60
21355;DHT22;10835;50.148;19.760;2023-10-09T04:57:46;21.20;47.10
21355;DHT22;10835;50.148;19.760;2023-10-09T05:00:30;21.30;47.00
21355;DHT22;10835;50.148;19.760;2023-10-09T05:03:20;21.30;46.90
21355;DHT22;10835;50.148;19.760;2023-10-09T05:05:56;21.40;46.60
21355;DHT22;10835;50.148;19.760;2023-10-09T05:08:48;21.40;46.50
21355;DHT22;10835;50.148;19.760;2023-10-09T05:11:17;21.50;46.40
21355;DHT22;10835;50.148;19.760;2023-10-09T05:14:00;21.50;46.00
21355;DHT22;10835;50.148;19.760;2023-10-09T05:16:41;21.60;45.90
21355;DHT22;10835;50.148;19.760;2023-10-09T05:19:24;21.50;46.00
21355;DHT22;10835;50.148;19.760;2023-10-09T05:22:16;21.60;45.90
21355;DHT22;10835;50.148;19.760;2023-10-09T05:24:58;21.60;46.10
21355;DHT22;10835;50.148;19.760;2023-10-09T05:27:30;21.60;46.20
21355;DHT22;10835;50.148;19.760;2023-10-09T05:30:18;21.60;46.20
21355;DHT22;10835;50.148;19.760;2023-10-09T05:32:56;21.60;46.10
21355;DHT22;10835;50.148;19.760;2023-10-09T05:35:43;21.50;46.20
21355;DHT22;10835;50.148;19.760;2023-10-09T05:38:31;21.60;46.60
21355;DHT22;10835;50.148;19.760;2023-10-09T05:41:03;21.60;46.50
21355;DHT22;10835;50.148;19.760;2023-10-09T05:43:45;21.70;46.40
21355;DHT22;10835;50.148;19.760;2023-10-09T05:46:31;21.70;46.30
21355;DHT22;10835;50.148;19.760;2023-10-09T05:49:05;21.70;46.10
21355;DHT22;10835;50.148;19.760;2023-10-09T05:51:47;21.70;46.20
21355;DHT22;10835;50.148;19.760;2023-10-09T05:54:41;21.70;46.20
21355;DHT22;10835;50.148;19.760;2023-10-09T05:57:26;21.50;46.20
21355;DHT22;10835;50.148;19.760;2023-10-09T06:00:11;21.60;46.70
21355;DHT22;10835;50.148;19.760;2023-10-09T06:02:58;21.60;46.90
21355;DHT22;10835;50.148;19.760;2023-10-09T06:05:45;21.30;47.00
21355;DHT22;10835;50.148;19.760;2023-10-09T06:08:32;21.30;47.70
21355;DHT22;10835;50.148;19.760;2023-10-09T06:11:38;21.40;47.80
21355;DHT22;10835;50.148;19.760;2023-10-09T06:14:06;21.20;47.70
21355;DHT22;10835;50.148;19.760;2023-10-09T06:16:42;21.30;47.90
21355;DHT22;10835;50.148;19.760;2023-10-09T06:19:12;21.60;48.10
21355;DHT22;10835;50.148;19.760;2023-10-09T06:21:56;21.50;48.10
21355;DHT22;10835;50.148;19.760;2023-10-09T06:24:42;21.60;48.40
21355;DHT22;10835;50.148;19.760;2023-10-09T06:27:25;21.80;48.40
21355;DHT22;10835;50.148;19.760;2023-10-09T06:30:14;21.80;48.30
21355;DHT22;10835;50.148;19.760;2023-10-09T06:32:42;22.00;47.90
21355;DHT22;10835;50.148;19.760;2023-10-09T06:35:18;21.70;48.30
21355;DHT22;10835;50.148;19.760;2023-10-09T06:37:51;21.90;48.70
21355;DHT22;10835;50.148;19.760;2023-10-09T06:40:38;22.10;46.80
21355;DHT22;10835;50.148;19.760;2023-10-09T06:43:24;22.20;47.00
21355;DHT22;10835;50.148;19.760;2023-10-09T06:45:57;22.30;46.50
21355;DHT22;10835;50.148;19.760;2023-10-09T06:48:42;22.20;46.10
21355;DHT22;10835;50.148;19.760;2023-10-09T06:51:23;22.10;46.10
21355;DHT22;10835;50.148;19.760;2023-10-09T06:54:10;21.90;46.40
21355;DHT22;10835;50.148;19.760;2023-10-09T06:56:45;21.90;46.00
21355;DHT22;10835;50.148;19.760;2023-10-09T06:59:31;21.70;46.10
21355;DHT22;10835;50.148;19.760;2023-10-09T07:02:30;21.40;46.30
21355;DHT22;10835;50.148;19.760;2023-10-09T07:05:13;21.40;46.80
21355;DHT22;10835;50.148;19.760;2023-10-09T07:07:45;21.60;47.40
21355;DHT22;10835;50.148;19.760;2023-10-09T07:10:27;21.60;47.80
21355;DHT22;10835;50.148;19.760;2023-10-09T07:13:00;21.80;46.80
21355;DHT22;10835;50.148;19.760;2023-10-09T07:15:30;21.70;46.50
21355;DHT22;10835;50.148;19.760;2023-10-09T07:18:17;21.30;47.20
21355;DHT22;10835;50.148;19.760;2023-10-09T07:20:50;21.60;47.60
21355;DHT22;10835;50.148;19.760;2023-10-09T07:23:28;21.50;47.80
21355;DHT22;10835;50.148;19.760;2023-10-09T07:26:05;21.70;47.30
21355;DHT22;10835;50.148;19.760;2023-10-09T07:28:46;21.30;47.40
21355;DHT22;10835;50.148;19.760;2023-10-09T07:31:17;21.00;48.20
21355;DHT22;10835;50.148;19.760;2023-10-09T07:33:52;20.80;49.30
21355;DHT22;10835;50.148;19.760;2023-10-09T07:36:25;20.70;49.40
21355;DHT22;10835;50.148;19.760;2023-10-09T07:39:08;20.90;49.60
21355;DHT22;10835;50.148;19.760;2023-10-09T07:41:45;21.20;49.20
21355;DHT22;10835;50.148;19.760;2023-10-09T07:44:24;21.40;48.20
21355;DHT22;10835;50.148;19.760;2023-10-09T07:47:12;21.50;48.30
21355;DHT22;10835;50.148;19.760;2023-10-09T07:49:47;21.40;48.60
21355;DHT22;10835;50.148;19.760;2023-10-09T07:52:22;21.60;48.70
21355;DHT22;10835;50.148;19.760;2023-10-09T07:54:50;21.60;48.80
21355;DHT22;10835;50.148;19.760;2023-10-09T07:57:22;21.80;48.80
21355;DHT22;10835;50.148;19.760;2023-10-09T07:59:56;21.20;48.50
21355;DHT22;10835;50.148;19.760;2023-10-09T08:02:40;21.20;49.00
21355;DHT22;10835;50.148;19.760;2023-10-09T08:05:09;21.40;48.90
21355;DHT22;10835;50.148;19.760;2023-10-09T08:07:49;21.40;49.90
21355;DHT22;10835;50.148;19.760;2023-10-09T08:10:39;21.50;49.60
21355;DHT22;10835;50.148;19.760;2023-10-09T08:13:27;20.90;49.60
21355;DHT22;10835;50.148;19.760;2023-10-09T08:16:15;21.00;49.60
21355;DHT22;10835;50.148;19.760;2023-10-09T08:18:52;20.90;49.20
21355;DHT22;10835;50.148;19.760;2023-10-09T08:21:20;20.80;49.70
21355;DHT22;10835;50.148;19.760;2023-10-09T08:24:08;20.90;50.20
21355;DHT22;10835;50.148;19.760;2023-10-09T08:26:59;20.70;50.10
21355;DHT22;10835;50.148;19.760;2023-10-09T08:29:42;20.30;49.80
21355;DHT22;10835;50.148;19.760;2023-10-09T08:32:14;20.30;50.70
21355;DHT22;10835;50.148;19.760;2023-10-09T08:35:09;20.00;51.50
21355;DHT22;10835;50.148;19.760;2023-10-09T08:37:57;20.20;51.50
21355;DHT22;10835;50.148;19.760;2023-10-09T08:40:30;20.40;51.50
21355;DHT22;10835;50.148;19.760;2023-10-09T08:43:07;20.60;51.40
21355;DHT22;10835;50.148;19.760;2023-10-09T08:45:41;20.80;50.90
21355;DHT22;10835;50.148;19.760;2023-10-09T08:48:11;20.40;50.50
21355;DHT22;10835;50.148;19.760;2023-10-09T08:50:44;20.40;51.60
21355;DHT22;10835;50.148;19.760;2023-10-09T08:53:14;20.70;51.60
21355;DHT22;10835;50.148;19.760;2023-10-09T08:55:45;21.00;51.80
21355;DHT22;10835;50.148;19.760;2023-10-09T08:58:15;21.00;52.20
21355;DHT22;10835;50.148;19.760;2023-10-09T09:00:49;21.10;50.30
21355;DHT22;10835;50.148;19.760;2023-10-09T09:03:18;21.30;50.00
21355;DHT22;10835;50.148;19.760;2023-10-09T09:05:57;21.40;50.40
21355;DHT22;10835;50.148;19.760;2023-10-09T09:08:29;21.70;50.30
21355;DHT22;10835;50.148;19.760;2023-10-09T09:10:59;21.70;49.00
21355;DHT22;10835;50.148;19.760;2023-10-09T09:13:40;22.20;48.80
21355;DHT22;10835;50.148;19.760;2023-10-09T09:16:29;22.30;48.50
21355;DHT22;10835;50.148;19.760;2023-10-09T09:19:16;22.50;48.50
21355;DHT22;10835;50.148;19.760;2023-10-09T09:21:50;22.60;48.00
21355;DHT22;10835;50.148;19.760;2023-10-09T09:24:25;22.80;48.20
21355;DHT22;10835;50.148;19.760;2023-10-09T09:27:04;22.90;48.00
21355;DHT22;10835;50.148;19.760;2023-10-09T09:29:46;22.40;47.40
21355;DHT22;10835;50.148;19.760;2023-10-09T09:32:29;22.80;47.20
21355;DHT22;10835;50.148;19.760;2023-10-09T09:35:04;23.10;46.60
21355;DHT22;10835;50.148;19.760;2023-10-09T09:37:33;23.30;45.50
21355;DHT22;10835;50.148;19.760;2023-10-09T09:40:18;23.20;46.00
21355;DHT22;10835;50.148;19.760;2023-10-09T09:43:02;23.30;45.90
21355;DHT22;10835;50.148;19.760;2023-10-09T09:45:35;23.20;46.10
21355;DHT22;10835;50.148;19.760;2023-10-09T09:48:06;23.50;46.20
21355;DHT22;10835;50.148;19.760;2023-10-09T09:50:37;23.70;44.40
21355;DHT22;10835;50.148;19.760;2023-10-09T09:53:11;23.80;45.10
21355;DHT22;10835;50.148;19.760;2023-10-09T09:55:49;23.50;45.20
21355;DHT22;10835;50.148;19.760;2023-10-09T09:58:24;22.80;45.70
21355;DHT22;10835;50.148;19.760;2023-10-09T10:01:03;23.10;46.00
21355;DHT22;10835;50.148;19.760;2023-10-09T10:03:47;23.50;46.00
21355;DHT22;10835;50.148;19.760;2023-10-09T10:06:19;23.50;45.60
21355;DHT22;10835;50.148;19.760;2023-10-09T10:08:50;23.60;45.60
21355;DHT22;10835;50.148;19.760;2023-10-09T10:11:41;23.60;44.80
21355;DHT22;10835;50.148;19.760;2023-10-09T10:14:12;23.70;44.70
21355;DHT22;10835;50.148;19.760;2023-10-09T10:17:03;23.70;44.50
21355;DHT22;10835;50.148;19.760;2023-10-09T10:20:06;23.60;45.20
21355;DHT22;10835;50.148;19.760;2023-10-09T10:23:16;23.50;45.70
21355;DHT22;10835;50.148;19.760;2023-10-09T10:25:53;23.40;45.50
21355;DHT22;10835;50.148;19.760;2023-10-09T10:28:28;23.50;45.70
21355;DHT22;10835;50.148;19.760;2023-10-09T10:31:07;23.30;45.40
21355;DHT22;10835;50.148;19.760;2023-10-09T10:34:05;23.40;45.60
21355;DHT22;10835;50.148;19.760;2023-10-09T10:36:39;23.30;45.90
21355;DHT22;10835;50.148;19.760;2023-10-09T10:39:11;23.40;45.90
21355;DHT22;10835;50.148;19.760;2023-10-09T10:41:56;23.00;46.40
21355;DHT22;10835;50.148;19.760;2023-10-09T10:44:28;23.20;46.50
21355;DHT22;10835;50.148;19.760;2023-10-09T10:47:05;23.20;46.50
21355;DHT22;10835;50.148;19.760;2023-10-09T10:49:49;23.10;47.00
21355;DHT22;10835;50.148;19.760;2023-10-09T10:52:23;23.00;47.20
21355;DHT22;10835;50.148;19.760;2023-10-09T10:55:10;22.90;47.10
21355;DHT22;10835;50.148;19.760;2023-10-09T10:58:01;23.00;47.90
21355;DHT22;10835;50.148;19.760;2023-10-09T11:00:37;22.90;48.10
21355;DHT22;10835;50.148;19.760;2023-10-09T11:03:24;22.90;48.50
21355;DHT22;10835;50.148;19.760;2023-10-09T11:06:03;22.80;47.90
21355;DHT22;10835;50.148;19.760;2023-10-09T11:08:45;22.90;48.20
21355;DHT22;10835;50.148;19.760;2023-10-09T11:11:22;22.80;48.50
21355;DHT22;10835;50.148;19.760;2023-10-09T11:14:08;22.90;48.40
21355;DHT22;10835;50.148;19.760;2023-10-09T11:16:42;22.70;48.80
21355;DHT22;10835;50.148;19.760;2023-10-09T11:19:19;22.40;48.20
21355;DHT22;10835;50.148;19.760;2023-10-09T11:21:57;22.40;49.40
21355;DHT22;10835;50.148;19.760;2023-10-09T11:24:57;22.60;49.40
21355;DHT22;10835;50.148;19.760;2023-10-09T11:27:40;22.70;49.30
21355;DHT22;10835;50.148;19.760;2023-10-09T11:30:31;22.40;49.10
21355;DHT22;10835;50.148;19.760;2023-10-09T11:33:05;22.40;48.40
21355;DHT22;10835;50.148;19.760;2023-10-09T11:35:32;22.20;49.10
21355;DHT22;10835;50.148;19.760;2023-10-09T11:38:03;22.10;49.40
21355;DHT22;10835;50.148;19.760;2023-10-09T11:40:50;22.40;49.20
21355;DHT22;10835;50.148;19.760;2023-10-09T11:43:50;22.40;49.50
21355;DHT22;10835;50.148;19.760;2023-10-09T11:46:25;21.90;49.20
21355;DHT22;10835;50.148;19.760;2023-10-09T11:49:07;22.10;49.60
21355;DHT22;10835;50.148;19.760;2023-10-09T11:52:06;22.30;50.00
21355;DHT22;10835;50.148;19.760;2023-10-09T11:54:53;22.00;50.30
21355;DHT22;10835;50.148;19.760;2023-10-09T11:57:26;22.20;49.90
21355;DHT22;10835;50.148;19.760;2023-10-09T12:00:02;22.40;49.60
21355;DHT22;10835;50.148;19.760;2023-10-09T12:02:38;22.50;49.40
21355;DHT22;10835;50.148;19.760;2023-10-09T12:05:11;22.50;49.20
21355;DHT22;10835;50.148;19.760;2023-10-09T12:07:44;22.30;49.40
21355;DHT22;10835;50.148;19.760;2023-10-09T12:10:14;22.20;49.60
21355;DHT22;10835;50.148;19.760;2023-10-09T12:12:53;22.30;49.60
21355;DHT22;10835;50.148;19.760;2023-10-09T12:15:25;22.30;49.50
21355;DHT22;10835;50.148;19.760;2023-10-09T12:17:59;22.40;49.50
21355;DHT22;10835;50.148;19.760;2023-10-09T12:20:29;22.50;49.30
21355;DHT22;10835;50.148;19.760;2023-10-09T12:23:01;22.60;49.20
21355;DHT22;10835;50.148;19.760;2023-10-09T12:25:33;22.60;49.30
21355;DHT22;10835;50.148;19.760;2023-10-09T12:28:04;22.70;49.30
21355;DHT22;10835;50.148;19.760;2023-10-09T12:30:34;22.70;48.90
21355;DHT22;10835;50.148;19.760;2023-10-09T12:33:08;22.60;49.30
21355;DHT22;10835;50.148;19.760;2023-10-09T12:35:37;22.80;49.00
21355;DHT22;10835;50.148;19.760;2023-10-09T12:38:06;22.80;49.00
21355;DHT22;10835;50.148;19.760;2023-10-09T12:40:37;22.90;48.90
21355;DHT22;10835;50.148;19.760;2023-10-09T12:43:09;22.80;49.00
21355;DHT22;10835;50.148;19.760;2023-10-09T12:45:43;22.90;49.20
21355;DHT22;10835;50.148;19.760;2023-10-09T12:48:12;23.00;49.30
21355;DHT22;10835;50.148;19.760;2023-10-09T12:50:42;22.90;48.90
21355;DHT22;10835;50.148;19.760;2023-10-09T12:53:11;22.80;49.00
21355;DHT22;10835;50.148;19.760;2023-10-09T12:55:45;23.00;49.10
21355;DHT22;10835;50.148;19.760;2023-10-09T12:58:15;23.00;49.20
21355;DHT22;10835;50.148;19.760;2023-10-09T13:00:45;23.20;49.20
21355;DHT22;10835;50.148;19.760;2023-10-09T13:03:17;23.10;48.50
21355;DHT22;10835;50.148;19.760;2023-10-09T13:05:48;23.20;48.30
21355;DHT22;10835;50.148;19.760;2023-10-09T13:08:24;23.20;48.10
21355;DHT22;10835;50.148;19.760;2023-10-09T13:11:03;23.20;48.10
21355;DHT22;10835;50.148;19.760;2023-10-09T13:13:41;23.20;48.60
21355;DHT22;10835;50.148;19.760;2023-10-09T13:16:12;23.30;48.10
21355;DHT22;10835;50.148;19.760;2023-10-09T13:18:48;23.20;48.00
21355;DHT22;10835;50.148;19.760;2023-10-09T13:21:21;23.20;47.90
21355;DHT22;10835;50.148;19.760;2023-10-09T13:23:51;23.10;47.90
21355;DHT22;10835;50.148;19.760;2023-10-09T13:26:22;23.20;48.20
21355;DHT22;10835;50.148;19.760;2023-10-09T13:29:04;23.20;48.30
21355;DHT22;10835;50.148;19.760;2023-10-09T13:31:36;23.20;48.20
21355;DHT22;10835;50.148;19.760;2023-10-09T13:34:13;23.20;48.10
21355;DHT22;10835;50.148;19.760;2023-10-09T13:36:43;23.20;48.00
21355;DHT22;10835;50.148;19.760;2023-10-09T13:39:19;23.20;48.30
21355;DHT22;10835;50.148;19.760;2023-10-09T13:41:51;23.10;48.60
21355;DHT22;10835;50.148;19.760;2023-10-09T13:44:27;23.10;48.70
21355;DHT22;10835;50.148;19.760;2023-10-09T13:46:57;23.10;48.60
21355;DHT22;10835;50.148;19.760;2023-10-09T13:49:26;23.10;48.70
21355;DHT22;10835;50.148;19.760;2023-10-09T13:51:58;23.20;48.90
21355;DHT22;10835;50.148;19.760;2023-10-09T13:54:28;23.20;48.70
21355;DHT22;10835;50.148;19.760;2023-10-09T13:57:07;23.10;48.70
21355;DHT22;10835;50.148;19.760;2023-10-09T13:59:39;23.10;48.50
21355;DHT22;10835;50.148;19.760;2023-10-09T14:02:16;23.20;48.70
21355;DHT22;10835;50.148;19.760;2023-10-09T14:04:46;23.10;48.70
21355;DHT22;10835;50.148;19.760;2023-10-09T14:07:15;23.20;48.40
21355;DHT22;10835;50.148;19.760;2023-10-09T14:09:45;23.20;48.30
21355;DHT22;10835;50.148;19.760;2023-10-09T14:12:22;23.20;48.60
21355;DHT22;10835;50.148;19.760;2023-10-09T14:14:53;23.20;48.80
21355;DHT22;10835;50.148;19.760;2023-10-09T14:17:23;23.30;49.40
21355;DHT22;10835;50.148;19.760;2023-10-09T14:19:54;23.30;48.40
21355;DHT22;10835;50.148;19.760;2023-10-09T14:22:28;23.40;48.20
21355;DHT22;10835;50.148;19.760;2023-10-09T14:24:56;23.40;48.10
21355;DHT22;10835;50.148;19.760;2023-10-09T14:27:27;23.40;48.20
21355;DHT22;10835;50.148;19.760;2023-10-09T14:29:58;23.40;48.30
21355;DHT22;10835;50.148;19.760;2023-10-09T14:32:27;23.10;48.30
21355;DHT22;10835;50.148;19.760;2023-10-09T14:35:01;23.30;48.50
21355;DHT22;10835;50.148;19.760;2023-10-09T14:37:30;23.30;48.50
21355;DHT22;10835;50.148;19.760;2023-10-09T14:39:59;23.40;48.20
21355;DHT22;10835;50.148;19.760;2023-10-09T14:42:28;23.40;48.10
21355;DHT22;10835;50.148;19.760;2023-10-09T14:44:58;23.40;48.10
21355;DHT22;10835;50.148;19.760;2023-10-09T14:47:30;23.40;48.10
21355;DHT22;10835;50.148;19.760;2023-10-09T14:49:58;23.40;48.30
21355;DHT22;10835;50.148;19.760;2023-10-09T14:52:29;23.40;48.50
21355;DHT22;10835;50.148;19.760;2023-10-09T14:54:57;23.40;48.40
21355;DHT22;10835;50.148;19.760;2023-10-09T14:57:27;23.40;48.50
21355;DHT22;10835;50.148;19.760;2023-10-09T15:00:07;23.40;48.30
21355;DHT22;10835;50.148;19.760;2023-10-09T15:02:41;23.40;48.60
21355;DHT22;10835;50.148;19.760;2023-10-09T15:05:09;23.40;48.40
21355;DHT22;10835;50.148;19.760;2023-10-09T15:07:39;23.40;48.40
21355;DHT22;10835;50.148;19.760;2023-10-09T15:10:12;23.40;48.50
21355;DHT22;10835;50.148;19.760;2023-10-09T15:12:42;23.40;48.30
21355;DHT22;10835;50.148;19.760;2023-10-09T15:15:15;23.40;48.30
21355;DHT22;10835;50.148;19.760;2023-10-09T15:17:44;23.40;48.40
21355;DHT22;10835;50.148;19.760;2023-10-09T15:20:16;23.30;48.40
21355;DHT22;10835;50.148;19.760;2023-10-09T15:22:45;23.40;48.50
21355;DHT22;10835;50.148;19.760;2023-10-09T15:25:13;23.50;48.40
21355;DHT22;10835;50.148;19.760;2023-10-09T15:27:43;23.50;48.50
21355;DHT22;10835;50.148;19.760;2023-10-09T15:30:12;23.50;48.50
21355;DHT22;10835;50.148;19.760;2023-10-09T15:32:46;23.50;48.30
21355;DHT22;10835;50.148;19.760;2023-10-09T15:35:17;23.40;48.50
21355;DHT22;10835;50.148;19.760;2023-10-09T15:37:46;23.40;48.60
21355;DHT22;10835;50.148;19.760;2023-10-09T15:40:14;23.40;49.30
21355;DHT22;10835;50.148;19.760;2023-10-09T15:42:46;23.30;48.70
21355;DHT22;10835;50.148;19.760;2023-10-09T15:45:17;23.30;48.80
21355;DHT22;10835;50.148;19.760;2023-10-09T15:47:50;23.30;48.70
21355;DHT22;10835;50.148;19.760;2023-10-09T15:50:20;23.40;48.80
21355;DHT22;10835;50.148;19.760;2023-10-09T15:52:52;23.10;49.00
21355;DHT22;10835;50.148;19.760;2023-10-09T15:55:21;23.30;48.80
21355;DHT22;10835;50.148;19.760;2023-10-09T15:57:52;23.40;48.60
21355;DHT22;10835;50.148;19.760;2023-10-09T16:00:22;23.50;48.40
21355;DHT22;10835;50.148;19.760;2023-10-09T16:02:57;23.40;48.40
21355;DHT22;10835;50.148;19.760;2023-10-09T16:05:28;23.30;48.80
21355;DHT22;10835;50.148;19.760;2023-10-09T16:07:57;23.10;49.10
21355;DHT22;10835;50.148;19.760;2023-10-09T16:10:27;23.00;49.20